createdAt,value
2022-09-17T00:01:35.799Z,9.40
2022-09-17T00:04:07.132Z,9.40
2022-09-17T00:06:37.226Z,9.30
2022-09-17T00:09:06.913Z,9.30
2022-09-17T00:11:37.662Z,9.30
2022-09-17T00:14:09.320Z,9.30
2022-09-17T00:16:39.180Z,9.30
2022-09-17T00:19:10.095Z,9.30
2022-09-17T00:21:38.255Z,9.30
2022-09-17T00:24:07.569Z,9.20
2022-09-17T00:26:36.745Z,9.20
2022-09-17T00:29:06.892Z,9.20
2022-09-17T00:31:35.540Z,9.20
2022-09-17T00:34:05.789Z,9.10
2022-09-17T00:36:36.506Z,9.10
2022-09-17T00:39:05.810Z,9.20
2022-09-17T00:41:37.400Z,9.10
2022-09-17T00:44:38.416Z,9.10
2022-09-17T00:47:14.663Z,9.10
2022-09-17T00:49:43.537Z,9.20
2022-09-17T00:52:15.438Z,9.10
2022-09-17T00:54:53.050Z,9.20
2022-09-17T00:57:20.955Z,9.10
2022-09-17T00:59:49.543Z,9.10
2022-09-17T01:02:18.816Z,9.10
2022-09-17T01:04:46.903Z,9.10
2022-09-17T01:07:36.695Z,9.10
2022-09-17T01:10:16.685Z,9.10
2022-09-17T01:12:58.645Z,9.10
2022-09-17T01:15:35.433Z,9.10
2022-09-17T01:18:18.239Z,9.00
2022-09-17T01:21:07.966Z,9.10
2022-09-17T01:24:03.171Z,9.00
2022-09-17T01:27:11.122Z,9.10
2022-09-17T01:29:56.308Z,9.30
2022-09-17T01:32:30.129Z,9.30
2022-09-17T01:35:05.174Z,9.20
2022-09-17T01:37:37.431Z,9.20
2022-09-17T01:40:13.356Z,9.30
2022-09-17T01:42:50.526Z,9.20
2022-09-17T01:45:23.020Z,9.30
2022-09-17T01:47:55.204Z,9.30
2022-09-17T01:50:26.953Z,9.30
2022-09-17T01:52:57.348Z,9.30
2022-09-17T01:55:28.155Z,9.40
2022-09-17T01:58:00.744Z,9.30
2022-09-17T02:00:28.825Z,9.40
2022-09-17T02:03:03.192Z,9.50
2022-09-17T02:05:38.203Z,9.60
2022-09-17T02:08:10.316Z,9.60
2022-09-17T02:10:42.583Z,9.70
2022-09-17T02:13:13.999Z,9.70
2022-09-17T02:15:44.766Z,9.70
2022-09-17T02:18:20.733Z,9.70
2022-09-17T02:20:54.853Z,9.70
2022-09-17T02:23:29.739Z,9.60
2022-09-17T02:26:04.037Z,9.70
2022-09-17T02:28:42.582Z,9.60
2022-09-17T02:31:11.700Z,9.60
2022-09-17T02:33:42.847Z,9.80
2022-09-17T02:36:10.741Z,9.80
2022-09-17T02:38:42.252Z,9.80
2022-09-17T02:41:17.467Z,9.80
2022-09-17T02:43:55.356Z,9.70
2022-09-17T02:46:44.780Z,9.70
2022-09-17T02:49:31.929Z,9.70
2022-09-17T02:52:14.454Z,9.70
2022-09-17T02:54:52.416Z,9.70
2022-09-17T02:57:25.557Z,9.70
2022-09-17T03:00:00.481Z,9.80
2022-09-17T03:02:34.167Z,9.70
2022-09-17T03:05:04.781Z,9.70
2022-09-17T03:07:32.932Z,9.80
2022-09-17T03:10:00.780Z,9.80
2022-09-17T03:12:29.331Z,9.80
2022-09-17T03:14:57.211Z,9.70
2022-09-17T03:17:25.105Z,9.70
2022-09-17T03:19:53.132Z,9.80
2022-09-17T03:22:22.588Z,9.80
2022-09-17T03:24:50.460Z,9.80
2022-09-17T03:27:18.273Z,9.90
2022-09-17T03:29:46.128Z,9.70
2022-09-17T03:32:13.997Z,9.70
2022-09-17T03:34:41.835Z,9.80
2022-09-17T03:37:09.888Z,9.70
2022-09-17T03:39:39.085Z,9.70
2022-09-17T03:42:07.596Z,9.70
2022-09-17T03:44:35.532Z,9.60
2022-09-17T03:47:03.413Z,9.60
2022-09-17T03:49:31.297Z,9.70
2022-09-17T03:51:59.687Z,9.70
2022-09-17T03:54:27.562Z,9.70
2022-09-17T03:56:57.106Z,9.60
2022-09-17T03:59:25.033Z,9.70
2022-09-17T04:01:52.989Z,9.70
2022-09-17T04:04:20.908Z,9.60
2022-09-17T04:06:49.212Z,9.60
2022-09-17T04:09:17.284Z,9.60
2022-09-17T04:11:45.120Z,9.70
2022-09-17T04:14:14.391Z,9.60
2022-09-17T04:16:42.302Z,9.50
2022-09-17T04:19:10.167Z,9.50
2022-09-17T04:21:38.259Z,9.50
2022-09-17T04:24:06.503Z,9.50
2022-09-17T04:26:34.430Z,9.50
2022-09-17T04:29:02.245Z,9.50
2022-09-17T04:31:31.769Z,9.60
2022-09-17T04:33:59.716Z,9.50
2022-09-17T04:36:27.612Z,9.50
2022-09-17T04:38:55.442Z,9.50
2022-09-17T04:41:23.235Z,9.30
2022-09-17T04:43:51.606Z,9.30
2022-09-17T04:46:19.605Z,9.20
2022-09-17T04:48:48.805Z,9.20
2022-09-17T04:51:16.735Z,9.20
2022-09-17T04:53:44.648Z,9.20
2022-09-17T04:56:12.500Z,9.20
2022-09-17T04:58:40.363Z,9.30
2022-09-17T05:01:08.294Z,9.40
2022-09-17T05:03:36.333Z,9.40
2022-09-17T05:06:05.916Z,9.50
2022-09-17T05:08:33.790Z,9.50
2022-09-17T05:11:01.635Z,9.50
2022-09-17T05:13:29.552Z,9.50
2022-09-17T05:15:57.613Z,9.50
2022-09-17T05:18:26.349Z,9.60
2022-09-17T05:20:54.484Z,9.60
2022-09-17T05:23:23.981Z,9.50
2022-09-17T05:25:52.919Z,9.60
2022-09-17T05:28:20.780Z,9.60
2022-09-17T05:30:48.635Z,9.50
2022-09-17T05:33:16.458Z,9.60
2022-09-17T05:35:45.286Z,9.60
2022-09-17T05:38:13.240Z,9.70
2022-09-17T05:40:42.501Z,9.70
2022-09-17T05:43:11.143Z,9.70
2022-09-17T05:45:39.923Z,9.70
2022-09-17T05:48:10.483Z,9.80
2022-09-17T05:50:38.340Z,9.90
2022-09-17T05:53:07.444Z,9.90
2022-09-17T05:55:35.979Z,10.00
2022-09-17T05:58:12.458Z,10.10
2022-09-17T06:00:41.703Z,10.00
2022-09-17T06:03:10.301Z,10.00
2022-09-17T06:05:38.240Z,10.00
2022-09-17T06:08:06.527Z,10.00
2022-09-17T06:10:37.479Z,10.10
2022-09-17T06:13:05.725Z,10.10
2022-09-17T06:15:35.191Z,10.10
2022-09-17T06:18:03.063Z,10.20
2022-09-17T06:20:30.953Z,10.20
2022-09-17T06:22:58.926Z,10.20
2022-09-17T06:25:27.451Z,10.30
2022-09-17T06:27:55.333Z,10.40
2022-09-17T06:30:23.183Z,10.40
2022-09-17T06:32:52.580Z,10.60
2022-09-17T06:35:20.697Z,10.60
2022-09-17T06:37:48.900Z,10.60
2022-09-17T06:40:17.644Z,10.60
2022-09-17T06:42:45.560Z,10.70
2022-09-17T06:45:16.774Z,10.80
2022-09-17T06:47:45.035Z,10.80
2022-09-17T06:50:14.383Z,10.70
2022-09-17T06:52:49.209Z,10.70
2022-09-17T06:55:17.491Z,10.70
2022-09-17T06:57:45.650Z,10.80
2022-09-17T07:00:14.791Z,10.80
2022-09-17T07:02:42.932Z,10.80
2022-09-17T07:05:11.028Z,10.90
2022-09-17T07:07:40.778Z,10.90
2022-09-17T07:10:10.073Z,11.00
2022-09-17T07:12:42.931Z,11.10
2022-09-17T07:15:13.917Z,11.30
2022-09-17T07:17:42.705Z,11.40
2022-09-17T07:20:11.897Z,11.60
2022-09-17T07:22:41.411Z,11.60
2022-09-17T07:25:10.534Z,11.60
2022-09-17T07:27:38.538Z,11.60
2022-09-17T07:30:07.668Z,11.50
2022-09-17T07:32:35.682Z,11.50
2022-09-17T07:35:03.598Z,11.70
2022-09-17T07:37:31.503Z,11.90
2022-09-17T07:40:00.791Z,11.80
2022-09-17T07:42:28.995Z,11.80
2022-09-17T07:45:01.752Z,11.80
2022-09-17T07:47:30.391Z,11.80
2022-09-17T07:49:58.449Z,12.10
2022-09-17T07:52:26.392Z,12.20
2022-09-17T07:54:54.311Z,12.20
2022-09-17T07:57:23.524Z,12.20
2022-09-17T07:59:51.478Z,12.10
2022-09-17T08:02:24.061Z,12.20
2022-09-17T08:04:52.827Z,12.20
2022-09-17T08:07:20.732Z,12.20
2022-09-17T08:09:48.614Z,12.20
2022-09-17T08:12:18.403Z,12.20
2022-09-17T08:14:47.621Z,12.10
2022-09-17T08:17:15.711Z,12.10
2022-09-17T08:19:43.576Z,12.00
2022-09-17T08:22:11.747Z,12.00
2022-09-17T08:24:39.660Z,12.10
2022-09-17T08:27:07.507Z,12.30
2022-09-17T08:29:35.547Z,12.70
2022-09-17T08:32:04.995Z,12.90
2022-09-17T08:34:32.955Z,12.80
2022-09-17T08:37:00.878Z,12.70
2022-09-17T08:39:29.613Z,12.80
2022-09-17T08:42:09.957Z,13.00
2022-09-17T08:44:42.555Z,13.10
2022-09-17T08:47:19.318Z,13.30
2022-09-17T08:49:53.794Z,13.10
2022-09-17T08:52:52.283Z,13.00
2022-09-17T08:55:34.011Z,13.20
2022-09-17T08:58:27.171Z,13.30
2022-09-17T09:01:03.195Z,13.40
2022-09-17T09:03:45.571Z,13.70
2022-09-17T09:06:16.603Z,14.00
2022-09-17T09:08:49.135Z,14.40
2022-09-17T09:11:22.835Z,14.30
2022-09-17T09:13:55.350Z,14.40
2022-09-17T09:16:26.339Z,14.20
2022-09-17T09:19:00.087Z,14.70
2022-09-17T09:21:43.371Z,14.80
2022-09-17T09:24:19.712Z,14.80
2022-09-17T09:26:50.105Z,14.40
2022-09-17T09:29:26.919Z,14.20
2022-09-17T09:32:16.674Z,14.10
2022-09-17T09:34:47.547Z,13.80
2022-09-17T09:37:20.944Z,13.10
2022-09-17T09:39:51.945Z,11.90
2022-09-17T09:42:28.824Z,11.30
2022-09-17T09:45:04.169Z,10.90
2022-09-17T09:47:43.871Z,11.00
2022-09-17T09:51:01.930Z,11.00
2022-09-17T09:53:38.369Z,11.20
2022-09-17T09:56:20.029Z,11.40
2022-09-17T09:58:47.895Z,11.50
2022-09-17T10:01:20.322Z,11.50
2022-09-17T10:03:51.869Z,11.70
2022-09-17T10:06:21.690Z,11.80
2022-09-17T10:09:11.008Z,11.80
2022-09-17T10:11:39.482Z,11.90
2022-09-17T10:14:25.526Z,11.80
2022-09-17T10:17:12.900Z,11.90
2022-09-17T10:19:41.067Z,11.90
2022-09-17T10:22:30.237Z,11.90
2022-09-17T10:25:00.142Z,11.90
2022-09-17T10:27:29.116Z,11.90
2022-09-17T10:30:05.300Z,12.00
2022-09-17T10:32:33.124Z,11.90
2022-09-17T10:35:06.132Z,12.00
2022-09-17T10:37:43.553Z,12.00
2022-09-17T10:40:28.472Z,11.90
2022-09-17T10:43:19.516Z,12.10
2022-09-17T10:45:58.767Z,12.40
2022-09-17T10:48:31.681Z,12.90
2022-09-17T10:51:01.615Z,13.20
2022-09-17T10:53:30.795Z,13.30
2022-09-17T10:56:11.939Z,13.70
2022-09-17T10:58:53.023Z,13.60
2022-09-17T11:01:33.735Z,13.60
2022-09-17T11:04:32.762Z,13.90
2022-09-17T11:07:33.256Z,13.70
2022-09-17T11:10:09.419Z,13.90
2022-09-17T11:12:47.413Z,13.90
2022-09-17T11:15:29.642Z,13.90
2022-09-17T11:18:13.261Z,14.00
2022-09-17T11:23:53.588Z,13.90
2022-09-17T11:26:33.581Z,13.80
2022-09-17T11:29:15.711Z,14.00
2022-09-17T11:31:53.332Z,14.60
2022-09-17T11:34:29.093Z,15.00
2022-09-17T11:37:04.032Z,15.20
2022-09-17T11:39:38.016Z,15.70
2022-09-17T11:42:11.747Z,15.80
2022-09-17T11:44:46.710Z,15.80
2022-09-17T11:47:19.782Z,15.80
2022-09-17T11:49:52.773Z,15.90
2022-09-17T11:52:24.175Z,15.60
2022-09-17T11:54:57.212Z,15.20
2022-09-17T11:57:28.779Z,15.00
2022-09-17T12:00:03.460Z,15.10
2022-09-17T12:02:45.890Z,15.20
2022-09-17T12:05:20.896Z,15.70
2022-09-17T12:07:55.412Z,15.80
2022-09-17T12:10:36.528Z,16.10
2022-09-17T12:13:21.717Z,16.30
2022-09-17T12:15:53.821Z,16.30
2022-09-17T12:18:33.917Z,15.90
2022-09-17T12:21:04.809Z,15.70
2022-09-17T12:23:39.345Z,15.40
2022-09-17T12:26:17.532Z,15.10
2022-09-17T12:28:55.138Z,15.10
2022-09-17T12:31:32.735Z,15.00
2022-09-17T12:34:20.415Z,14.90
2022-09-17T12:36:55.029Z,15.00
2022-09-17T12:39:47.202Z,14.50
2022-09-17T12:42:28.436Z,14.80
2022-09-17T12:45:27.686Z,15.20
2022-09-17T12:48:46.384Z,15.20
2022-09-17T12:51:29.484Z,14.80
2022-09-17T12:54:11.898Z,14.80
2022-09-17T12:56:55.003Z,15.00
2022-09-17T12:59:29.583Z,14.80
2022-09-17T13:02:03.460Z,15.00
2022-09-17T13:05:06.818Z,15.10
2022-09-17T13:07:54.836Z,15.10
2022-09-17T13:10:41.882Z,15.00
2022-09-17T13:13:30.711Z,14.80
2022-09-17T13:16:13.286Z,14.60
2022-09-17T13:19:05.778Z,14.30
2022-09-17T13:21:49.974Z,14.30
2022-09-17T13:24:19.883Z,14.50
2022-09-17T13:26:48.402Z,14.80
2022-09-17T13:29:58.960Z,15.00
2022-09-17T13:32:52.619Z,15.00
2022-09-17T13:35:50.816Z,15.20
2022-09-17T13:38:23.777Z,15.00
2022-09-17T13:40:53.906Z,15.20
2022-09-17T13:43:29.788Z,15.40
2022-09-17T13:46:25.330Z,15.50
2022-09-17T13:48:58.658Z,15.40
2022-09-17T13:52:01.278Z,15.50
2022-09-17T13:54:38.942Z,15.70
2022-09-17T13:57:14.941Z,15.60
2022-09-17T13:59:58.088Z,15.80
2022-09-17T14:02:36.358Z,15.70
2022-09-17T14:05:34.951Z,16.00
2022-09-17T14:08:29.051Z,15.90
2022-09-17T14:10:58.992Z,16.10
2022-09-17T14:13:45.998Z,16.20
2022-09-17T14:16:46.260Z,16.10
2022-09-17T14:19:31.969Z,16.40
2022-09-17T14:22:14.302Z,16.30
2022-09-17T14:24:51.220Z,16.10
2022-09-17T14:27:31.759Z,15.90
2022-09-17T14:30:22.446Z,15.50
2022-09-17T14:32:59.177Z,15.50
2022-09-17T14:35:32.658Z,15.60
2022-09-17T14:38:03.822Z,15.60
2022-09-17T14:40:35.210Z,15.60
2022-09-17T14:43:04.507Z,15.60
2022-09-17T14:45:34.555Z,15.40
2022-09-17T14:48:27.102Z,15.30
2022-09-17T14:51:10.387Z,15.20
2022-09-17T14:53:38.290Z,15.10
2022-09-17T14:56:12.199Z,15.00
2022-09-17T14:58:44.817Z,15.10
2022-09-17T15:01:23.931Z,15.00
2022-09-17T15:04:08.663Z,15.10
2022-09-17T15:06:36.603Z,15.10
2022-09-17T15:09:04.522Z,14.80
2022-09-17T15:11:41.072Z,14.50
2022-09-17T15:14:14.325Z,14.50
2022-09-17T15:16:49.464Z,14.50
2022-09-17T15:19:24.682Z,14.40
2022-09-17T15:21:55.061Z,14.30
2022-09-17T15:24:34.926Z,14.20
2022-09-17T15:27:11.900Z,14.20
2022-09-17T15:29:43.750Z,14.20
2022-09-17T15:32:14.015Z,14.20
2022-09-17T15:34:42.154Z,14.00
2022-09-17T15:37:20.241Z,14.00
2022-09-17T15:39:53.321Z,14.00
2022-09-17T15:42:26.435Z,14.10
2022-09-17T15:44:54.806Z,14.00
2022-09-17T15:47:52.287Z,14.00
2022-09-17T15:50:23.014Z,14.10
2022-09-17T15:52:52.183Z,14.00
2022-09-17T15:55:35.792Z,14.00
2022-09-17T15:58:07.351Z,14.00
2022-09-17T16:00:35.276Z,13.10
2022-09-17T16:03:50.085Z,12.00
2022-09-17T16:06:36.632Z,11.40
2022-09-17T16:09:05.229Z,11.40
2022-09-17T16:11:33.842Z,11.70
2022-09-17T16:14:03.374Z,11.80
2022-09-17T16:16:36.574Z,11.80
2022-09-17T16:19:05.826Z,11.80
2022-09-17T16:21:34.031Z,11.90
2022-09-17T16:24:02.249Z,11.90
2022-09-17T16:26:32.442Z,11.90
2022-09-17T16:29:06.156Z,11.90
2022-09-17T16:31:34.909Z,11.80
2022-09-17T16:34:02.935Z,11.90
2022-09-17T16:36:32.120Z,11.90
2022-09-17T16:39:01.095Z,11.80
2022-09-17T16:41:29.033Z,12.00
2022-09-17T16:43:57.335Z,12.10
2022-09-17T16:46:26.727Z,12.20
2022-09-17T16:48:54.696Z,12.30
2022-09-17T16:51:22.577Z,12.80
2022-09-17T16:53:50.651Z,13.60
2022-09-17T16:56:18.633Z,13.50
2022-09-17T16:58:46.537Z,13.20
2022-09-17T17:01:16.063Z,12.70
2022-09-17T17:03:48.990Z,12.60
2022-09-17T17:06:17.846Z,12.50
2022-09-17T17:08:45.813Z,12.40
2022-09-17T17:11:13.736Z,12.30
2022-09-17T17:13:43.429Z,12.20
2022-09-17T17:16:13.314Z,11.70
2022-09-17T17:18:43.405Z,10.30
2022-09-17T17:21:14.243Z,9.50
2022-09-17T17:27:25.647Z,9.40
2022-09-17T17:33:24.723Z,9.30
2022-09-17T17:35:52.603Z,9.60
2022-09-17T17:38:22.153Z,9.50
2022-09-17T17:40:50.056Z,9.50
2022-09-17T17:43:17.917Z,9.60
2022-09-17T17:45:45.840Z,9.50
2022-09-17T17:48:13.758Z,9.40
2022-09-17T17:50:46.507Z,9.60
2022-09-17T17:53:14.384Z,9.60
2022-09-17T17:55:43.603Z,9.70
2022-09-17T17:58:11.455Z,9.70
2022-09-17T18:00:41.253Z,9.70
2022-09-17T18:03:11.353Z,9.80
2022-09-17T18:05:40.587Z,9.90
2022-09-17T18:08:08.442Z,9.90
2022-09-17T18:10:36.389Z,9.90
2022-09-17T18:13:05.590Z,9.90
2022-09-17T18:15:33.427Z,9.90
2022-09-17T18:18:01.676Z,9.80
2022-09-17T18:20:29.524Z,9.80
2022-09-17T18:22:57.425Z,9.80
2022-09-17T18:25:25.314Z,9.70
2022-09-17T18:27:53.887Z,9.60
2022-09-17T18:30:23.195Z,9.50
2022-09-17T18:32:52.947Z,9.60
2022-09-17T18:35:20.831Z,9.60
2022-09-17T18:37:49.065Z,9.70
2022-09-17T18:40:17.173Z,9.60
2022-09-17T18:42:45.063Z,9.60
2022-09-17T18:45:12.930Z,9.70
2022-09-17T18:47:42.281Z,9.70
2022-09-17T18:50:10.583Z,9.60
2022-09-17T18:52:38.480Z,9.60
2022-09-17T18:55:07.811Z,9.70
2022-09-17T18:57:35.821Z,9.70
2022-09-17T19:00:06.697Z,9.50
2022-09-17T19:02:34.767Z,9.50
2022-09-17T19:05:04.216Z,9.50
2022-09-17T19:07:32.287Z,9.40
2022-09-17T19:10:00.918Z,9.30
2022-09-17T19:12:30.572Z,9.30
2022-09-17T19:14:58.561Z,9.40
2022-09-17T19:17:26.509Z,9.40
2022-09-17T19:19:54.448Z,9.40
2022-09-17T19:22:25.228Z,9.40
2022-09-17T19:24:54.015Z,9.40
2022-09-17T19:27:21.965Z,9.50
2022-09-17T19:29:49.858Z,9.50
2022-09-17T19:32:17.915Z,9.50
2022-09-17T19:34:45.960Z,9.50
2022-09-17T19:37:13.963Z,9.50
2022-09-17T19:39:43.467Z,9.50
2022-09-17T19:42:11.706Z,9.40
2022-09-17T19:44:40.268Z,9.30
2022-09-17T19:47:08.641Z,9.40
2022-09-17T19:49:37.073Z,9.50
2022-09-17T19:52:05.855Z,9.50
2022-09-17T19:54:33.976Z,9.40
2022-09-17T19:57:05.424Z,9.40
2022-09-17T19:59:33.708Z,9.40
2022-09-17T20:02:02.186Z,9.50
2022-09-17T20:04:30.247Z,9.50
2022-09-17T20:07:01.642Z,9.60
2022-09-17T20:09:29.750Z,9.60
2022-09-17T20:11:58.826Z,9.70
2022-09-17T20:14:28.176Z,9.70
2022-09-17T20:16:56.075Z,9.80
2022-09-17T20:19:23.997Z,9.80
2022-09-17T20:21:51.792Z,9.80
2022-09-17T20:24:21.047Z,9.80
2022-09-17T20:26:48.999Z,9.80
2022-09-17T20:29:17.055Z,9.80
2022-09-17T20:31:46.528Z,9.90
2022-09-17T20:34:14.587Z,9.90
2022-09-17T20:36:42.673Z,9.90
2022-09-17T20:39:16.813Z,9.90
2022-09-17T20:41:49.537Z,9.80
2022-09-17T20:44:17.767Z,9.80
2022-09-17T20:46:47.347Z,9.90
2022-09-17T20:49:15.690Z,9.90
2022-09-17T20:51:43.760Z,10.00
2022-09-17T20:54:11.985Z,10.00
2022-09-17T20:56:40.271Z,10.10
2022-09-17T20:59:14.304Z,10.10
2022-09-17T21:01:44.944Z,10.00
2022-09-17T21:04:16.429Z,10.10
2022-09-17T21:06:45.106Z,10.20
2022-09-17T21:09:16.642Z,10.30
2022-09-17T21:11:45.501Z,10.20
2022-09-17T21:14:15.601Z,10.20
2022-09-17T21:16:43.834Z,10.30
2022-09-17T21:19:14.791Z,10.20
2022-09-17T21:21:42.880Z,10.30
2022-09-17T21:24:11.053Z,10.30
2022-09-17T21:26:39.014Z,10.30
2022-09-17T21:29:06.978Z,10.30
2022-09-17T21:31:37.716Z,10.40
2022-09-17T21:34:07.652Z,10.40
2022-09-17T21:36:38.673Z,10.40
2022-09-17T21:39:08.702Z,10.30
2022-09-17T21:41:42.097Z,10.40
2022-09-17T21:44:11.492Z,10.30
2022-09-17T21:46:39.985Z,10.30
2022-09-17T21:49:08.198Z,10.30
2022-09-17T21:51:39.650Z,10.30
2022-09-17T21:54:09.280Z,10.30
2022-09-17T21:56:38.008Z,10.20
2022-09-17T21:59:07.940Z,10.20
2022-09-17T22:01:40.146Z,10.20
2022-09-17T22:04:10.090Z,10.30
2022-09-17T22:06:40.007Z,10.30
2022-09-17T22:09:12.008Z,10.30
2022-09-17T22:11:39.940Z,10.30
2022-09-17T22:14:11.578Z,10.30
2022-09-17T22:16:41.786Z,10.30
2022-09-17T22:19:10.537Z,10.30
2022-09-17T22:21:41.452Z,10.30
2022-09-17T22:24:10.941Z,10.30
2022-09-17T22:26:40.860Z,10.20
2022-09-17T22:29:11.557Z,10.20
2022-09-17T22:31:40.171Z,10.20
2022-09-17T22:34:09.139Z,10.20
2022-09-17T22:36:39.179Z,10.20
2022-09-17T22:39:07.857Z,10.20
2022-09-17T22:41:37.808Z,10.20
2022-09-17T22:44:07.120Z,10.20
2022-09-17T22:46:36.687Z,10.10
2022-09-17T22:49:04.577Z,10.10
2022-09-17T22:51:32.795Z,10.10
2022-09-17T22:54:02.169Z,10.10
2022-09-17T22:56:30.740Z,10.10
2022-09-17T22:58:59.209Z,10.10
2022-09-17T23:01:29.741Z,10.10
2022-09-17T23:03:58.917Z,10.10
2022-09-17T23:06:28.721Z,10.10
2022-09-17T23:08:57.137Z,10.10
2022-09-17T23:11:28.134Z,10.10
2022-09-17T23:13:58.504Z,10.10
2022-09-17T23:16:26.463Z,10.10
2022-09-17T23:18:54.383Z,10.10
2022-09-17T23:21:22.782Z,10.00
2022-09-17T23:23:52.434Z,10.00
2022-09-17T23:26:22.501Z,9.90
2022-09-17T23:28:52.167Z,9.80
2022-09-17T23:31:21.887Z,9.80
2022-09-17T23:33:52.096Z,9.80
2022-09-17T23:36:23.564Z,9.80
2022-09-17T23:38:52.198Z,9.80
2022-09-17T23:41:22.021Z,9.80
2022-09-17T23:43:53.318Z,9.80
2022-09-17T23:46:23.221Z,9.80
2022-09-17T23:48:53.321Z,9.70
2022-09-17T23:51:21.303Z,9.70
2022-09-17T23:53:49.148Z,9.70
2022-09-17T23:56:19.729Z,9.70
2022-09-17T23:58:48.364Z,9.60
